Time;durP1;ratioP1;P1;durP2;ratioP2;P2;SDS_P1;SDS_P2;PMS_P1;PMS_P2;Temp;Humidity;BMP_temperature;BMP_pressure;BME280_temperature;BME280_humidity;BME280_pressure;Samples;Min_cycle;Max_cycle;Signal;HPM_P1;HPM_P2
2022/03/17 00:00:27;;;;;;;28.23;19.00;;;;;;;;;;5011753;28;97098;-75
2022/03/17 00:02:53;;;;;;;31.13;18.00;;;;;;;;;;5015281;28;95720;-75
2022/03/17 00:05:19;;;;;;;25.27;17.48;;;;;;;;;;5011561;28;97568;-75
2022/03/17 00:07:46;;;;;;;26.95;17.15;;;;;;;;;;5011773;28;95527;-74
2022/03/17 00:10:14;;;;;;;24.92;17.42;;;;;;;;;;5010857;28;97390;-74
2022/03/17 00:12:42;;;;;;;26.88;17.85;;;;;;;;;;5012602;28;97214;-73
2022/03/17 00:15:08;;;;;;;28.75;18.13;;;;;;;;;;5011787;28;95782;-74
2022/03/17 00:17:34;;;;;;;27.38;18.63;;;;;;;;;;5010921;28;97192;-73
2022/03/17 00:20:02;;;;;;;28.30;17.60;;;;;;;;;;5011099;28;97278;-74
2022/03/17 00:22:29;;;;;;;29.33;17.90;;;;;;;;;;5012194;28;95393;-75
2022/03/17 00:24:55;;;;;;;27.10;18.13;;;;;;;;;;5014708;28;97106;-75
2022/03/17 00:27:21;;;;;;;27.58;18.38;;;;;;;;;;5011104;28;95444;-73
2022/03/17 00:29:50;;;;;;;27.45;18.85;;;;;;;;;;5017187;28;96895;-74
2022/03/17 00:32:17;;;;;;;28.55;18.42;;;;;;;;;;5010800;28;97681;-73
2022/03/17 00:37:28;;;;;;;29.77;18.75;;;;;;;;;;5011960;28;96510;-74
2022/03/17 00:39:54;;;;;;;27.80;17.60;;;;;;;;;;5015110;28;97391;-74
2022/03/17 00:42:21;;;;;;;26.95;18.15;;;;;;;;;;5010962;28;95525;-74
2022/03/17 00:44:47;;;;;;;26.67;18.30;;;;;;;;;;5011581;28;97167;-74
2022/03/17 00:47:14;;;;;;;29.67;17.80;;;;;;;;;;5014218;28;97235;-73
2022/03/17 00:49:40;;;;;;;27.70;18.23;;;;;;;;;;5011146;28;96662;-73
2022/03/17 00:52:10;;;;;;;24.90;17.70;;;;;;;;;;5011090;28;97380;-74
2022/03/17 00:54:37;;;;;;;26.58;18.42;;;;;;;;;;5010902;28;95580;-74
2022/03/17 00:57:03;;;;;;;28.08;18.20;;;;;;;;;;5020616;28;96968;-73
2022/03/17 00:59:29;;;;;;;26.73;18.50;;;;;;;;;;5031359;28;97145;-73
2022/03/17 01:01:56;;;;;;;29.95;18.52;;;;;;;;;;5016617;28;95667;-74
2022/03/17 01:04:22;;;;;;;30.90;18.20;;;;;;;;;;5011089;28;97378;-74
2022/03/17 01:06:48;;;;;;;28.65;17.35;;;;;;;;;;5014858;28;95692;-73
2022/03/17 01:09:15;;;;;;;29.42;18.25;;;;;;;;;;5010440;28;96795;-74
2022/03/17 01:11:41;;;;;;;30.00;19.50;;;;;;;;;;5011139;28;97376;-73
2022/03/17 01:14:07;;;;;;;27.85;17.95;;;;;;;;;;5011012;28;95926;-73
2022/03/17 01:16:34;;;;;;;31.75;18.25;;;;;;;;;;5009614;28;96885;-73
2022/03/17 01:19:00;;;;;;;27.92;18.15;;;;;;;;;;5010613;28;97678;-76
2022/03/17 01:21:29;;;;;;;32.50;18.80;;;;;;;;;;5011198;28;95547;-74
2022/03/17 01:23:55;;;;;;;27.75;18.88;;;;;;;;;;5009458;28;96969;-73
2022/03/17 01:26:21;;;;;;;31.88;19.27;;;;;;;;;;5010318;28;97288;-73
2022/03/17 01:28:48;;;;;;;33.08;18.90;;;;;;;;;;5013098;28;96880;-72
2022/03/17 01:31:15;;;;;;;28.15;18.75;;;;;;;;;;5010126;28;97700;-73
2022/03/17 01:33:42;;;;;;;29.33;17.63;;;;;;;;;;5010668;28;95526;-73
2022/03/17 01:36:08;;;;;;;29.10;18.85;;;;;;;;;;5010767;28;96873;-73
2022/03/17 01:38:34;;;;;;;30.20;19.17;;;;;;;;;;4997277;28;97302;-73
2022/03/17 01:41:00;;;;;;;28.48;19.02;;;;;;;;;;5012917;28;95338;-74
2022/03/17 01:43:27;;;;;;;31.45;19.60;;;;;;;;;;5030931;28;97197;-74
2022/03/17 01:45:53;;;;;;;28.45;18.90;;;;;;;;;;5009779;27;96414;-75
2022/03/17 01:48:21;;;;;;;28.30;18.45;;;;;;;;;;5010814;28;95431;-74
2022/03/17 01:50:48;;;;;;;38.97;19.95;;;;;;;;;;5013849;28;97159;-74
2022/03/17 01:53:15;;;;;;;29.38;18.92;;;;;;;;;;5010010;28;95482;-73
2022/03/17 01:55:41;;;;;;;31.75;19.08;;;;;;;;;;5010370;28;96239;-74
2022/03/17 01:58:08;;;;;;;29.33;18.52;;;;;;;;;;5010185;28;97457;-74
2022/03/17 02:00:34;;;;;;;33.78;19.60;;;;;;;;;;5010298;28;95421;-73
2022/03/17 02:03:00;;;;;;;32.45;19.42;;;;;;;;;;5010406;28;97329;-73
2022/03/17 02:05:27;;;;;;;30.77;19.30;;;;;;;;;;5009602;28;97597;-73
2022/03/17 02:07:54;;;;;;;33.22;20.50;;;;;;;;;;5009742;28;95632;-75
2022/03/17 02:10:21;;;;;;;33.42;19.42;;;;;;;;;;5010439;28;96803;-74
2022/03/17 02:15:32;;;;;;;32.22;19.73;;;;;;;;;;5010026;28;97110;-74
2022/03/17 02:18:00;;;;;;;34.40;18.95;;;;;;;;;;5013448;28;97314;-75
2022/03/17 02:20:26;;;;;;;31.67;19.83;;;;;;;;;;5011834;28;95429;-74
2022/03/17 02:22:54;;;;;;;30.77;19.27;;;;;;;;;;5019837;28;97004;-75
2022/03/17 02:25:36;;;;;;;30.88;19.10;;;;;;;;;;5008297;28;97258;-74
2022/03/17 02:28:05;;;;;;;33.35;20.27;;;;;;;;;;5000713;28;95288;-74
2022/03/17 02:30:34;;;;;;;31.65;19.35;;;;;;;;;;5010104;28;96973;-74
2022/03/17 02:33:02;;;;;;;35.13;19.38;;;;;;;;;;5025406;28;97327;-74
2022/03/17 02:35:29;;;;;;;33.53;20.00;;;;;;;;;;5013116;27;96942;-74
2022/03/17 02:37:56;;;;;;;33.78;20.17;;;;;;;;;;5010002;28;97341;-74
2022/03/17 02:40:25;;;;;;;34.55;21.30;;;;;;;;;;5013666;28;95492;-75
2022/03/17 02:42:52;;;;;;;37.95;22.13;;;;;;;;;;5026709;28;97293;-75
2022/03/17 02:45:18;;;;;;;43.85;21.60;;;;;;;;;;5008955;28;97397;-74
2022/03/17 02:47:45;;;;;;;38.95;22.30;;;;;;;;;;5006026;28;95298;-74
2022/03/17 02:50:11;;;;;;;39.80;22.80;;;;;;;;;;5009060;28;97236;-75
2022/03/17 02:52:38;;;;;;;40.58;23.98;;;;;;;;;;5009440;28;97152;-74
2022/03/17 02:55:05;;;;;;;38.47;23.17;;;;;;;;;;5015193;28;95619;-75
2022/03/17 02:57:31;;;;;;;38.75;23.73;;;;;;;;;;5034182;28;97089;-74
2022/03/17 02:59:57;;;;;;;40.10;23.77;;;;;;;;;;5014443;28;95503;-75
2022/03/17 03:02:24;;;;;;;43.42;24.98;;;;;;;;;;5021957;28;96780;-74
2022/03/17 03:04:50;;;;;;;41.75;25.33;;;;;;;;;;5019403;27;96225;-73
2022/03/17 03:07:17;;;;;;;44.67;25.58;;;;;;;;;;5029440;28;95363;-75
2022/03/17 03:09:43;;;;;;;49.53;26.65;;;;;;;;;;5030453;28;96978;-75
2022/03/17 03:12:09;;;;;;;41.30;24.95;;;;;;;;;;5027053;28;97241;-75
2022/03/17 03:14:36;;;;;;;39.65;22.90;;;;;;;;;;5022387;27;96769;-74
2022/03/17 03:17:03;;;;;;;34.42;20.60;;;;;;;;;;5029701;28;97048;-73
2022/03/17 03:19:29;;;;;;;30.20;19.05;;;;;;;;;;5030387;28;95438;-74
2022/03/17 03:21:56;;;;;;;28.60;16.80;;;;;;;;;;5028098;27;96067;-74
2022/03/17 03:24:22;;;;;;;25.02;15.85;;;;;;;;;;5013952;28;96517;-75
2022/03/17 03:26:49;;;;;;;18.27;12.02;;;;;;;;;;5025113;28;95159;-76
2022/03/17 03:29:25;;;;;;;14.18;9.02;;;;;;;;;;5025986;27;96829;-74
2022/03/17 03:31:53;;;;;;;9.05;5.85;;;;;;;;;;5000050;28;97820;-74
2022/03/17 03:34:20;;;;;;;10.45;5.60;;;;;;;;;;5030465;28;95951;-74
2022/03/17 03:39:33;;;;;;;11.27;6.10;;;;;;;;;;5032430;28;97373;-74
2022/03/17 03:41:59;;;;;;;8.57;5.03;;;;;;;;;;5026414;28;96814;-75
2022/03/17 03:44:26;;;;;;;7.80;5.00;;;;;;;;;;5019655;28;97123;-74
2022/03/17 03:46:52;;;;;;;9.52;4.78;;;;;;;;;;5017641;28;96065;-74
2022/03/17 03:49:19;;;;;;;9.30;4.93;;;;;;;;;;5026954;28;96706;-74
2022/03/17 03:51:45;;;;;;;8.18;4.78;;;;;;;;;;4997819;28;97473;-73
2022/03/17 03:54:15;;;;;;;7.13;4.60;;;;;;;;;;5027701;27;95264;-74
2022/03/17 03:56:55;;;;;;;12.48;4.32;;;;;;;;;;5021300;27;96447;-74
2022/03/17 03:59:23;;;;;;;9.40;4.72;;;;;;;;;;5030234;27;96388;-74
2022/03/17 04:01:50;;;;;;;8.07;4.30;;;;;;;;;;5018756;28;95816;-74
2022/03/17 04:04:18;;;;;;;8.20;4.55;;;;;;;;;;5027092;28;97626;-74
2022/03/17 04:06:46;;;;;;;8.35;4.72;;;;;;;;;;5019569;28;95824;-75
2022/03/17 04:09:13;;;;;;;11.25;5.18;;;;;;;;;;5026768;28;97310;-73
2022/03/17 04:11:40;;;;;;;13.48;5.15;;;;;;;;;;5012684;28;97957;-73
2022/03/17 04:14:07;;;;;;;12.48;5.80;;;;;;;;;;5023999;27;95408;-73
2022/03/17 04:16:33;;;;;;;14.18;7.15;;;;;;;;;;5020004;28;96270;-73
2022/03/17 04:19:00;;;;;;;13.85;7.43;;;;;;;;;;5025199;28;97111;-74
2022/03/17 04:21:27;;;;;;;13.85;8.02;;;;;;;;;;5014502;28;95313;-74
2022/03/17 04:23:53;;;;;;;16.13;8.02;;;;;;;;;;5031080;27;96730;-73
2022/03/17 04:26:19;;;;;;;19.15;8.50;;;;;;;;;;5021869;28;95380;-74
2022/03/17 04:28:46;;;;;;;19.52;9.63;;;;;;;;;;5023950;28;96930;-74
2022/03/17 04:31:13;;;;;;;17.30;9.40;;;;;;;;;;5015070;27;97687;-73
2022/03/17 04:33:39;;;;;;;22.65;9.55;;;;;;;;;;5021635;28;96729;-73
2022/03/17 04:36:06;;;;;;;17.40;9.95;;;;;;;;;;5023714;28;97278;-73
2022/03/17 04:38:32;;;;;;;21.00;10.13;;;;;;;;;;5019460;28;97133;-74
2022/03/17 04:40:59;;;;;;;21.27;10.95;;;;;;;;;;5025159;27;95412;-75
2022/03/17 04:43:25;;;;;;;28.63;11.77;;;;;;;;;;5013287;27;97141;-73
2022/03/17 04:45:51;;;;;;;22.63;11.50;;;;;;;;;;5027409;28;97384;-73
2022/03/17 04:48:18;;;;;;;21.60;10.18;;;;;;;;;;5016914;28;97029;-75
2022/03/17 04:50:44;;;;;;;21.00;10.02;;;;;;;;;;5029407;28;97166;-75
2022/03/17 04:56:00;;;;;;;19.73;6.78;;;;;;;;;;5000079;28;96660;-75
2022/03/17 04:58:27;;;;;;;15.63;5.80;;;;;;;;;;5020200;27;96483;-75
2022/03/17 05:00:53;;;;;;;13.68;5.57;;;;;;;;;;5009798;28;95365;-75
2022/03/17 05:03:20;;;;;;;16.35;5.18;;;;;;;;;;5008932;28;95960;-75
2022/03/17 05:05:47;;;;;;;21.58;5.35;;;;;;;;;;5009787;28;96114;-76
2022/03/17 05:08:13;;;;;;;20.85;5.15;;;;;;;;;;5013954;28;95280;-75
2022/03/17 05:10:40;;;;;;;21.98;4.53;;;;;;;;;;5010076;28;97342;-75
2022/03/17 05:13:08;;;;;;;19.95;5.03;;;;;;;;;;5009761;28;95362;-75
2022/03/17 05:15:35;;;;;;;15.40;5.07;;;;;;;;;;5023058;28;97034;-75
2022/03/17 05:18:02;;;;;;;18.63;4.40;;;;;;;;;;5029987;28;97321;-74
2022/03/17 05:20:28;;;;;;;22.70;5.75;;;;;;;;;;5010831;28;95593;-75
2022/03/17 05:22:55;;;;;;;14.45;3.80;;;;;;;;;;5008321;28;96811;-75
2022/03/17 05:25:22;;;;;;;19.17;4.32;;;;;;;;;;5007843;28;97958;-74
2022/03/17 05:27:51;;;;;;;13.07;3.83;;;;;;;;;;5012405;28;96883;-75
2022/03/17 05:30:19;;;;;;;20.38;3.92;;;;;;;;;;5007722;28;97308;-74
2022/03/17 05:32:47;;;;;;;16.80;3.50;;;;;;;;;;5010080;28;95386;-75
2022/03/17 05:35:15;;;;;;;16.05;3.13;;;;;;;;;;5009312;28;96871;-74
2022/03/17 05:37:42;;;;;;;15.40;3.55;;;;;;;;;;5008823;28;97758;-74
2022/03/17 05:40:13;;;;;;;20.98;3.10;;;;;;;;;;5012159;28;95437;-75
2022/03/17 05:42:41;;;;;;;20.45;3.83;;;;;;;;;;5018519;28;97478;-75
2022/03/17 05:45:08;;;;;;;13.85;2.80;;;;;;;;;;5010124;28;97335;-73
2022/03/17 05:47:37;;;;;;;16.98;3.45;;;;;;;;;;5009998;28;95794;-75
2022/03/17 19:07:37;;;;;;;13.82;5.10;;;;;;;;;;5065563;27;1296847;-75
2022/03/17 19:10:05;;;;;;;13.85;4.70;;;;;;;;;;5081808;27;97280;-75
2022/03/17 19:12:32;;;;;;;17.88;5.65;;;;;;;;;;5085235;27;95402;-75
2022/03/17 19:14:58;;;;;;;13.20;5.65;;;;;;;;;;5075448;27;97172;-76
2022/03/17 19:17:24;;;;;;;17.70;5.40;;;;;;;;;;5072108;27;97267;-75
2022/03/17 19:19:56;;;;;;;17.17;4.50;;;;;;;;;;5082002;27;95304;-75
2022/03/17 19:22:26;;;;;;;11.18;3.63;;;;;;;;;;5084773;27;96654;-74
2022/03/17 19:24:53;;;;;;;14.45;4.65;;;;;;;;;;5080665;27;97183;-76
2022/03/17 19:27:20;;;;;;;20.63;4.55;;;;;;;;;;5069702;27;95303;-76
2022/03/17 19:29:48;;;;;;;15.00;4.40;;;;;;;;;;5081078;27;97754;-75
2022/03/17 19:32:15;;;;;;;9.23;3.80;;;;;;;;;;5074270;27;95472;-76
2022/03/17 19:34:42;;;;;;;14.23;5.03;;;;;;;;;;5078860;27;96926;-75
2022/03/17 19:37:08;;;;;;;11.23;5.15;;;;;;;;;;5078582;27;96073;-75
2022/03/17 19:39:34;;;;;;;14.23;5.18;;;;;;;;;;5075382;27;96365;-75
2022/03/17 19:42:02;;;;;;;16.35;5.90;;;;;;;;;;5070589;27;96601;-75
2022/03/17 19:44:28;;;;;;;19.80;6.15;;;;;;;;;;5072873;27;98155;-75
2022/03/17 19:46:55;;;;;;;14.48;7.95;;;;;;;;;;5082843;27;96069;-75
2022/03/17 19:52:09;;;;;;;13.07;4.85;;;;;;;;;;5079917;27;95253;-75
2022/03/17 19:54:36;;;;;;;10.25;4.47;;;;;;;;;;5072858;27;96772;-74
2022/03/17 19:57:02;;;;;;;23.58;5.35;;;;;;;;;;5072253;27;97285;-74
2022/03/17 19:59:29;;;;;;;17.83;4.50;;;;;;;;;;5086370;27;95280;-74
2022/03/17 20:01:55;;;;;;;12.05;4.03;;;;;;;;;;5084215;27;97509;-76
2022/03/17 20:04:42;;;;;;;16.65;5.82;;;;;;;;;;5085724;27;97514;-76
2022/03/17 20:07:10;;;;;;;13.90;3.40;;;;;;;;;;5084473;27;95360;-76
2022/03/17 20:09:37;;;;;;;12.50;3.65;;;;;;;;;;5077500;27;96756;-75
2022/03/17 20:14:52;;;;;;;12.10;3.65;;;;;;;;;;5065988;27;96655;-75
2022/03/17 20:17:20;;;;;;;10.00;4.43;;;;;;;;;;5079242;27;97111;-76
2022/03/17 20:19:51;;;;;;;15.18;5.03;;;;;;;;;;5071640;27;95381;-75
2022/03/17 20:22:19;;;;;;;14.63;6.65;;;;;;;;;;5072863;27;97242;-75
2022/03/17 20:24:54;;;;;;;17.73;4.22;;;;;;;;;;5072104;27;96242;-76
2022/03/17 20:27:21;;;;;;;10.10;3.50;;;;;;;;;;5061330;27;95344;-76
2022/03/17 20:29:51;;;;;;;10.88;3.50;;;;;;;;;;5052037;27;95923;-74
2022/03/17 20:32:20;;;;;;;9.98;3.05;;;;;;;;;;5051812;27;97352;-75
2022/03/17 20:34:50;;;;;;;;;;;;;;;;;;5055652;27;95424;-76
2022/03/17 20:37:17;;;;;;;15.20;3.60;;;;;;;;;;5063590;27;127538;-75
2022/03/17 20:39:43;;;;;;;10.57;3.10;;;;;;;;;;5072606;27;95656;-76
2022/03/17 20:42:10;;;;;;;12.73;3.28;;;;;;;;;;5072578;27;97100;-75
2022/03/17 20:44:36;;;;;;;12.57;3.05;;;;;;;;;;5071512;27;97051;-75
2022/03/17 20:47:03;;;;;;;11.93;3.03;;;;;;;;;;5068000;27;96658;-75
2022/03/17 20:49:30;;;;;;;13.35;4.25;;;;;;;;;;5052185;27;97753;-74
2022/03/17 20:51:58;;;;;;;13.18;3.80;;;;;;;;;;5051233;27;97340;-75
2022/03/17 20:54:26;;;;;;;9.15;3.65;;;;;;;;;;5051856;27;95687;-75
2022/03/17 20:57:03;;;;;;;10.65;3.33;;;;;;;;;;5062406;27;98541;-75
2022/03/17 20:59:30;;;;;;;12.80;3.33;;;;;;;;;;5070834;27;95132;-74
2022/03/17 21:01:57;;;;;;;12.25;3.20;;;;;;;;;;5073182;27;96241;-75
2022/03/17 21:04:24;;;;;;;8.38;2.67;;;;;;;;;;5071470;27;95189;-75
2022/03/17 21:06:53;;;;;;;14.35;3.38;;;;;;;;;;5069633;27;95549;-73
2022/03/17 21:09:25;;;;;;;13.75;4.00;;;;;;;;;;5073137;27;97286;-74
2022/03/17 21:11:56;;;;;;;11.13;3.50;;;;;;;;;;5073221;27;97436;-74
2022/03/17 21:14:29;;;;;;;14.07;3.50;;;;;;;;;;5071445;27;95702;-74
2022/03/17 21:16:56;;;;;;;10.32;3.03;;;;;;;;;;5071857;27;97256;-74
2022/03/17 21:19:23;;;;;;;15.52;3.45;;;;;;;;;;5072467;27;95759;-74
2022/03/17 21:21:56;;;;;;;11.32;3.00;;;;;;;;;;5070865;27;97202;-74
2022/03/17 21:24:31;;;;;;;11.77;3.80;;;;;;;;;;5071528;27;96529;-73
2022/03/17 21:26:58;;;;;;;16.98;4.65;;;;;;;;;;5071135;27;95214;-74
2022/03/17 21:29:34;;;;;;;12.63;3.80;;;;;;;;;;5069745;27;99981;-74
2022/03/17 21:32:04;;;;;;;12.38;3.47;;;;;;;;;;5070219;27;98595;-74
2022/03/17 21:34:32;;;;;;;8.13;3.40;;;;;;;;;;5070105;27;95908;-75
2022/03/17 21:36:59;;;;;;;12.05;3.50;;;;;;;;;;5069978;27;96690;-75
2022/03/17 21:39:29;;;;;;;11.88;3.55;;;;;;;;;;5073484;27;97553;-74
2022/03/17 21:41:56;;;;;;;11.45;3.08;;;;;;;;;;5071738;27;95587;-75
2022/03/17 21:44:25;;;;;;;13.75;3.33;;;;;;;;;;5071153;27;97409;-74
2022/03/17 21:46:54;;;;;;;9.48;3.28;;;;;;;;;;5070551;27;95383;-77
2022/03/17 21:49:22;;;;;;;15.60;3.45;;;;;;;;;;5070499;27;96189;-75
2022/03/17 21:51:48;;;;;;;14.45;4.57;;;;;;;;;;5071516;27;96518;-75
2022/03/17 21:54:19;;;;;;;12.80;3.90;;;;;;;;;;5061163;27;95284;-75
2022/03/17 21:56:46;;;;;;;15.10;3.53;;;;;;;;;;5051022;27;95962;-75
2022/03/17 21:59:12;;;;;;;18.25;4.10;;;;;;;;;;5050290;27;97529;-75
2022/03/17 22:01:39;;;;;;;11.57;3.92;;;;;;;;;;5071412;27;95735;-75
2022/03/17 22:04:05;;;;;;;10.98;3.67;;;;;;;;;;5070465;27;97230;-75
2022/03/17 22:06:32;;;;;;;11.75;3.65;;;;;;;;;;5070764;27;95359;-75
2022/03/17 22:09:18;;;;;;;16.92;4.80;;;;;;;;;;5070202;27;96987;-75
2022/03/17 22:11:44;;;;;;;11.90;3.58;;;;;;;;;;5070361;27;96223;-74
2022/03/17 22:14:11;;;;;;;12.10;3.78;;;;;;;;;;5071080;27;95652;-76
2022/03/17 22:16:37;;;;;;;17.75;4.47;;;;;;;;;;5070441;27;96737;-76
2022/03/17 22:19:04;;;;;;;15.90;5.22;;;;;;;;;;5070532;27;97816;-76
2022/03/17 22:21:30;;;;;;;13.93;4.47;;;;;;;;;;5070592;27;95571;-75
2022/03/17 22:23:57;;;;;;;16.25;5.40;;;;;;;;;;5073101;27;96893;-76
2022/03/17 22:26:24;;;;;;;13.30;5.10;;;;;;;;;;5070790;27;95347;-76
2022/03/17 22:28:53;;;;;;;17.75;4.00;;;;;;;;;;5071064;27;96794;-75
2022/03/17 22:31:19;;;;;;;10.40;4.25;;;;;;;;;;5069496;27;97384;-76
2022/03/17 22:33:46;;;;;;;9.93;4.72;;;;;;;;;;5070875;27;96210;-75
2022/03/17 22:36:13;;;;;;;11.60;5.28;;;;;;;;;;5069929;27;96695;-75
2022/03/17 22:38:40;;;;;;;12.10;4.80;;;;;;;;;;5070235;27;97212;-74
2022/03/17 22:43:51;;;;;;;12.35;4.80;;;;;;;;;;5070049;27;97318;-76
2022/03/17 22:46:17;;;;;;;13.80;5.20;;;;;;;;;;5071676;27;97281;-75
2022/03/17 22:48:48;;;;;;;12.45;4.68;;;;;;;;;;5070669;27;96452;-74
2022/03/17 22:51:14;;;;;;;11.27;4.28;;;;;;;;;;5069110;27;97246;-75
2022/03/17 22:53:42;;;;;;;13.00;3.80;;;;;;;;;;5070549;27;95395;-76
2022/03/17 22:56:08;;;;;;;12.23;4.25;;;;;;;;;;5070195;27;96918;-75
2022/03/17 22:58:34;;;;;;;21.05;4.07;;;;;;;;;;5069618;27;97430;-74
2022/03/17 23:01:00;;;;;;;9.43;3.80;;;;;;;;;;5069827;27;95285;-74
2022/03/17 23:03:27;;;;;;;9.82;3.70;;;;;;;;;;5070490;27;95835;-75
2022/03/17 23:05:54;;;;;;;10.40;3.72;;;;;;;;;;5068818;27;97498;-74
2022/03/17 23:08:20;;;;;;;15.80;4.15;;;;;;;;;;5073134;27;95596;-75
2022/03/17 23:10:47;;;;;;;9.20;3.55;;;;;;;;;;5069868;27;97360;-74
2022/03/17 23:13:14;;;;;;;12.30;4.07;;;;;;;;;;5069185;27;95387;-74
2022/03/17 23:15:43;;;;;;;16.50;4.03;;;;;;;;;;5069254;27;97024;-75
2022/03/17 23:18:29;;;;;;;14.60;4.10;;;;;;;;;;5068705;27;99121;-74
2022/03/17 23:20:56;;;;;;;9.07;3.63;;;;;;;;;;5069662;27;95336;-74
2022/03/17 23:23:22;;;;;;;13.73;3.85;;;;;;;;;;5069018;27;97118;-75
2022/03/17 23:25:49;;;;;;;13.77;3.88;;;;;;;;;;5068385;27;97343;-76
2022/03/17 23:28:16;;;;;;;11.98;4.00;;;;;;;;;;5072564;27;95306;-76
2022/03/17 23:30:43;;;;;;;13.15;3.97;;;;;;;;;;5069264;27;97292;-76
2022/03/17 23:33:09;;;;;;;18.98;4.30;;;;;;;;;;5068248;27;95667;-76
2022/03/17 23:35:35;;;;;;;12.45;3.80;;;;;;;;;;5068968;27;96944;-76
2022/03/17 23:38:02;;;;;;;9.57;4.10;;;;;;;;;;5068869;27;96846;-76
2022/03/17 23:40:30;;;;;;;14.07;4.80;;;;;;;;;;5069074;27;95738;-75
2022/03/17 23:42:56;;;;;;;25.75;4.90;;;;;;;;;;5069707;27;97145;-74
2022/03/17 23:45:23;;;;;;;16.73;4.80;;;;;;;;;;5068857;27;97281;-77
2022/03/17 23:47:49;;;;;;;14.30;5.72;;;;;;;;;;5068338;27;95348;-75
2022/03/17 23:50:16;;;;;;;14.88;5.30;;;;;;;;;;5071739;27;96807;-75
2022/03/17 23:52:42;;;;;;;16.08;5.80;;;;;;;;;;5070324;27;95627;-76
2022/03/17 23:55:18;;;;;;;15.88;5.75;;;;;;;;;;5071910;27;96777;-76
2022/03/17 23:57:45;;;;;;;15.90;5.50;;;;;;;;;;5072276;27;97473;-76
